createdAt,value
2019-02-27T00:00:31.848Z,2.01
2019-02-27T00:02:59.497Z,2.32
2019-02-27T00:05:27.157Z,2.38
2019-02-27T00:07:55.025Z,2.65
2019-02-27T00:10:22.872Z,2.13
2019-02-27T00:12:52.025Z,1.90
2019-02-27T00:15:20.161Z,1.98
2019-02-27T00:17:51.083Z,2.12
2019-02-27T00:20:17.187Z,1.95
2019-02-27T00:22:44.844Z,2.04
2019-02-27T00:25:12.575Z,2.25
2019-02-27T00:27:40.243Z,2.26
2019-02-27T00:30:07.901Z,2.14
2019-02-27T00:32:35.565Z,2.12
2019-02-27T00:35:06.166Z,1.75
2019-02-27T00:37:32.582Z,1.86
2019-02-27T00:40:00.289Z,2.00
2019-02-27T00:42:33.588Z,2.07
2019-02-27T00:44:57.345Z,2.01
2019-02-27T00:47:25.005Z,2.12
2019-02-27T00:49:52.660Z,1.79
2019-02-27T00:52:20.317Z,1.86
2019-02-27T00:54:47.982Z,1.79
2019-02-27T00:57:20.562Z,1.72
2019-02-27T00:59:44.999Z,1.55
2019-02-27T01:02:12.653Z,1.42
2019-02-27T01:04:40.317Z,1.48
2019-02-27T01:07:07.975Z,1.44
2019-02-27T01:09:37.258Z,1.56
2019-02-27T01:12:04.993Z,1.63
2019-02-27T01:14:36.941Z,1.67
2019-02-27T01:17:02.040Z,1.57
2019-02-27T01:19:29.697Z,1.57
2019-02-27T01:21:57.344Z,1.68
2019-02-27T01:24:25.008Z,1.76
2019-02-27T01:26:52.673Z,1.84
2019-02-27T01:29:20.330Z,1.61
2019-02-27T01:31:47.971Z,1.55
2019-02-27T01:34:15.637Z,1.43
2019-02-27T01:36:43.280Z,1.48
2019-02-27T01:39:11.383Z,1.47
2019-02-27T01:41:39.730Z,1.36
2019-02-27T01:44:07.386Z,1.19
2019-02-27T01:46:35.036Z,1.38
2019-02-27T01:49:02.692Z,1.51
2019-02-27T01:51:30.357Z,1.25
2019-02-27T01:53:58.004Z,1.42
2019-02-27T01:56:28.928Z,1.46
2019-02-27T01:58:55.037Z,1.47
2019-02-27T02:01:29.749Z,1.27
2019-02-27T02:03:53.751Z,1.30
2019-02-27T02:06:21.400Z,1.24
2019-02-27T02:08:49.054Z,1.24
2019-02-27T02:11:16.727Z,1.03
2019-02-27T02:13:47.992Z,0.90
2019-02-27T02:16:13.733Z,0.97
2019-02-27T02:18:41.383Z,1.18
2019-02-27T02:21:09.045Z,1.10
2019-02-27T02:23:36.714Z,0.91
2019-02-27T02:26:04.375Z,0.76
2019-02-27T02:28:32.035Z,0.81
2019-02-27T02:31:04.869Z,0.67
2019-02-27T02:33:30.393Z,0.94
2019-02-27T02:35:58.321Z,0.86
2019-02-27T02:38:25.970Z,0.72
2019-02-27T02:40:53.628Z,0.54
2019-02-27T02:43:21.293Z,0.46
2019-02-27T02:45:48.947Z,0.56
2019-02-27T02:48:16.610Z,0.62
2019-02-27T02:50:44.279Z,0.40
2019-02-27T02:53:11.931Z,0.36
2019-02-27T02:55:39.591Z,0.33
2019-02-27T02:58:07.767Z,0.30
2019-02-27T03:00:39.099Z,0.28
2019-02-27T03:03:05.976Z,0.26
2019-02-27T03:05:33.639Z,0.28
2019-02-27T03:08:01.321Z,0.41
2019-02-27T03:10:29.054Z,0.54
2019-02-27T03:12:56.722Z,0.53
2019-02-27T03:15:28.455Z,0.56
2019-02-27T03:17:54.997Z,0.24
2019-02-27T03:20:23.002Z,0.08
2019-02-27T03:22:50.655Z,0.19
2019-02-27T03:25:18.402Z,0.49
2019-02-27T03:27:46.061Z,0.43
2019-02-27T03:30:13.740Z,0.36
2019-02-27T03:32:43.611Z,0.34
2019-02-27T03:35:10.779Z,0.45
2019-02-27T03:37:38.448Z,0.44
2019-02-27T03:40:10.672Z,0.36
2019-02-27T03:42:35.480Z,0.24
2019-02-27T03:45:03.143Z,0.33
2019-02-27T03:47:30.811Z,0.14
2019-02-27T03:49:58.467Z,0.09
2019-02-27T03:52:26.143Z,0.19
2019-02-27T03:54:57.092Z,0.04
2019-02-27T03:57:23.170Z,-0.07
2019-02-27T03:59:50.846Z,0.17
2019-02-27T04:02:18.509Z,0.17
2019-02-27T04:04:46.166Z,0.05
2019-02-27T04:07:13.832Z,0.12
2019-02-27T04:09:41.499Z,0.10
2019-02-27T04:12:09.155Z,-0.05
2019-02-27T04:14:40.817Z,-0.16
2019-02-27T04:17:07.526Z,-0.05
2019-02-27T04:19:39.068Z,0.03
2019-02-27T04:22:04.930Z,0.00
2019-02-27T04:24:32.580Z,0.09
2019-02-27T04:27:00.249Z,0.10
2019-02-27T04:29:27.918Z,-0.07
2019-02-27T04:31:55.586Z,-0.17
2019-02-27T04:34:23.237Z,-0.10
2019-02-27T04:36:50.926Z,0.00
2019-02-27T04:39:18.598Z,-0.01
2019-02-27T04:41:46.270Z,-0.19
2019-02-27T04:44:13.930Z,-0.18
2019-02-27T04:46:41.598Z,-0.24
2019-02-27T04:49:09.264Z,-0.28
2019-02-27T04:51:36.935Z,-0.27
2019-02-27T04:54:07.296Z,-0.14
2019-02-27T04:56:34.058Z,-0.06
2019-02-27T04:59:01.725Z,0.04
2019-02-27T05:01:29.387Z,0.04
2019-02-27T05:04:01.209Z,0.03
2019-02-27T05:06:26.423Z,-0.06
2019-02-27T05:08:54.083Z,0.00
2019-02-27T05:11:21.757Z,0.23
2019-02-27T05:13:53.966Z,0.06
2019-02-27T05:16:18.786Z,0.08
2019-02-27T05:18:46.451Z,0.09
2019-02-27T05:21:14.117Z,0.07
2019-02-27T05:23:41.774Z,0.04
2019-02-27T05:26:09.437Z,0.03
2019-02-27T05:28:37.087Z,-0.07
2019-02-27T05:31:04.750Z,-0.12
2019-02-27T05:33:35.683Z,-0.10
2019-02-27T05:36:01.803Z,-0.07
2019-02-27T05:38:29.587Z,-0.11
2019-02-27T05:40:59.865Z,-0.20
2019-02-27T05:43:26.689Z,-0.16
2019-02-27T05:45:54.405Z,-0.04
2019-02-27T05:48:22.079Z,-0.10
2019-02-27T05:50:49.734Z,-0.16
2019-02-27T05:53:17.430Z,-0.20
2019-02-27T05:55:45.093Z,-0.17
2019-02-27T05:58:12.765Z,-0.16
2019-02-27T06:00:40.431Z,-0.15
2019-02-27T06:03:08.094Z,-0.15
2019-02-27T06:05:36.020Z,-0.08
2019-02-27T06:08:04.407Z,-0.10
2019-02-27T06:10:32.091Z,-0.12
2019-02-27T06:12:59.757Z,-0.14
2019-02-27T06:15:28.600Z,-0.12
2019-02-27T06:17:56.985Z,-0.11
2019-02-27T06:20:24.649Z,-0.13
2019-02-27T06:22:52.316Z,-0.04
2019-02-27T06:25:23.228Z,-0.04
2019-02-27T06:27:49.457Z,-0.03
2019-02-27T06:30:17.116Z,0.00
2019-02-27T06:32:44.780Z,0.07
2019-02-27T06:35:12.438Z,0.21
2019-02-27T06:37:40.106Z,0.22
2019-02-27T06:40:08.085Z,0.22
2019-02-27T06:42:35.813Z,0.34
2019-02-27T06:45:03.470Z,0.50
2019-02-27T06:47:33.034Z,0.59
2019-02-27T06:50:00.495Z,0.64
2019-02-27T06:52:28.158Z,0.64
2019-02-27T06:54:55.814Z,0.73
2019-02-27T06:57:23.494Z,0.81
2019-02-27T06:59:51.150Z,0.81
2019-02-27T07:02:19.147Z,0.89
2019-02-27T07:04:48.191Z,1.04
2019-02-27T07:07:15.855Z,1.13
2019-02-27T07:09:45.823Z,1.24
2019-02-27T07:12:13.170Z,1.37
2019-02-27T07:14:40.826Z,1.48
2019-02-27T07:17:08.494Z,1.59
2019-02-27T07:19:36.155Z,1.74
2019-02-27T07:22:06.253Z,1.83
2019-02-27T07:24:33.840Z,1.89
2019-02-27T07:27:01.534Z,2.03
2019-02-27T07:29:29.189Z,2.20
2019-02-27T07:31:57.242Z,2.26
2019-02-27T07:34:25.103Z,2.41
2019-02-27T07:36:52.774Z,2.63
2019-02-27T07:39:20.445Z,2.68
2019-02-27T07:41:48.102Z,2.79
2019-02-27T07:44:15.761Z,2.88
2019-02-27T07:46:43.424Z,3.04
2019-02-27T07:49:11.090Z,3.26
2019-02-27T07:51:38.755Z,3.49
2019-02-27T07:54:06.426Z,3.65
2019-02-27T07:56:34.074Z,3.76
2019-02-27T07:59:01.742Z,3.95
2019-02-27T08:01:29.394Z,4.00
2019-02-27T08:03:57.055Z,4.11
2019-02-27T08:06:24.709Z,4.18
2019-02-27T08:08:56.980Z,4.52
2019-02-27T08:11:21.712Z,4.66
2019-02-27T08:13:49.368Z,4.65
2019-02-27T08:16:17.025Z,4.88
2019-02-27T08:18:44.674Z,5.04
2019-02-27T08:21:12.329Z,4.99
2019-02-27T08:23:39.979Z,5.22
2019-02-27T08:26:07.627Z,5.14
2019-02-27T08:28:35.297Z,5.27
2019-02-27T08:31:02.944Z,5.29
2019-02-27T08:33:30.582Z,5.52
2019-02-27T08:35:58.247Z,5.63
2019-02-27T08:38:25.933Z,5.69
2019-02-27T08:40:57.518Z,5.76
2019-02-27T08:43:22.943Z,5.90
2019-02-27T08:45:50.605Z,5.99
2019-02-27T08:48:18.257Z,6.37
2019-02-27T08:50:45.913Z,6.30
2019-02-27T08:53:13.567Z,6.44
2019-02-27T08:55:41.222Z,6.75
2019-02-27T08:58:08.868Z,6.71
2019-02-27T09:00:36.528Z,6.88
2019-02-27T09:03:04.204Z,6.93
2019-02-27T09:05:31.851Z,7.16
2019-02-27T09:07:59.517Z,7.16
2019-02-27T09:10:30.457Z,7.41
2019-02-27T09:13:04.964Z,7.61
2019-02-27T09:15:25.883Z,7.70
2019-02-27T09:17:53.538Z,7.76
2019-02-27T09:20:21.199Z,8.23
2019-02-27T09:22:48.844Z,8.35
2019-02-27T09:25:16.505Z,8.46
2019-02-27T09:27:44.195Z,8.52
2019-02-27T09:30:11.961Z,8.98
2019-02-27T09:32:39.681Z,8.88
2019-02-27T09:35:07.339Z,9.02
2019-02-27T09:37:34.999Z,8.90
2019-02-27T09:40:05.681Z,9.20
2019-02-27T09:42:32.039Z,9.29
2019-02-27T09:44:59.704Z,9.46
2019-02-27T09:47:27.360Z,9.57
2019-02-27T09:49:55.024Z,9.76
2019-02-27T09:52:23.760Z,9.66
2019-02-27T09:54:51.532Z,9.85
2019-02-27T09:57:19.194Z,9.91
2019-02-27T09:59:46.862Z,9.95
2019-02-27T10:02:14.521Z,10.24
2019-02-27T10:04:42.193Z,10.42
2019-02-27T10:07:09.868Z,10.77
2019-02-27T10:09:37.539Z,10.85
2019-02-27T10:12:05.201Z,11.14
2019-02-27T10:14:32.867Z,11.13
2019-02-27T10:17:00.523Z,11.14
2019-02-27T10:19:28.229Z,11.05
2019-02-27T10:21:55.959Z,11.29
2019-02-27T10:24:23.624Z,11.62
2019-02-27T10:26:53.599Z,11.56
2019-02-27T10:29:20.655Z,11.81
2019-02-27T10:31:48.325Z,12.02
2019-02-27T10:34:17.599Z,12.09
2019-02-27T10:36:45.415Z,12.09
2019-02-27T10:39:13.405Z,12.24
2019-02-27T10:41:41.088Z,12.46
2019-02-27T10:44:08.769Z,12.78
2019-02-27T10:46:36.425Z,12.85
2019-02-27T10:49:04.155Z,12.80
2019-02-27T10:51:31.810Z,12.88
2019-02-27T10:54:02.329Z,12.88
2019-02-27T10:56:28.841Z,12.91
2019-02-27T10:58:56.499Z,13.21
2019-02-27T11:01:24.167Z,13.40
2019-02-27T11:03:51.831Z,13.35
2019-02-27T11:06:19.556Z,13.64
2019-02-27T11:08:47.345Z,13.67
2019-02-27T11:11:16.442Z,13.90
2019-02-27T11:13:44.386Z,13.77
2019-02-27T11:16:12.061Z,13.86
2019-02-27T11:18:39.731Z,13.87
2019-02-27T11:21:07.416Z,13.99
2019-02-27T11:23:35.181Z,13.92
2019-02-27T11:26:02.851Z,14.10
2019-02-27T11:28:30.523Z,14.14
2019-02-27T11:30:58.227Z,14.23
2019-02-27T11:33:26.216Z,14.21
2019-02-27T11:35:54.019Z,14.31
2019-02-27T11:38:24.637Z,14.38
2019-02-27T11:40:51.057Z,14.41
2019-02-27T11:43:18.729Z,14.43
2019-02-27T11:45:46.402Z,14.51
2019-02-27T11:48:14.058Z,14.39
2019-02-27T11:50:41.724Z,14.78
2019-02-27T11:53:09.370Z,14.72
2019-02-27T11:55:37.036Z,14.74
2019-02-27T11:58:05.564Z,14.87
2019-02-27T12:00:33.928Z,14.93
2019-02-27T12:03:01.583Z,15.10
2019-02-27T12:05:33.855Z,14.87
2019-02-27T12:07:58.666Z,14.97
2019-02-27T12:10:26.407Z,14.86
2019-02-27T12:12:59.572Z,14.96
2019-02-27T12:15:23.451Z,15.07
2019-02-27T12:17:51.142Z,15.03
2019-02-27T12:20:18.999Z,15.23
2019-02-27T12:22:46.768Z,15.30
2019-02-27T12:25:14.507Z,15.33
2019-02-27T12:27:49.188Z,15.49
2019-02-27T12:30:11.595Z,15.41
2019-02-27T12:32:39.463Z,15.13
2019-02-27T12:35:08.237Z,15.45
2019-02-27T12:37:36.473Z,15.40
2019-02-27T12:40:04.134Z,15.41
2019-02-27T12:42:37.267Z,15.42
2019-02-27T12:45:01.172Z,15.42
2019-02-27T12:47:28.839Z,15.54
2019-02-27T12:49:56.500Z,15.46
2019-02-27T12:52:24.167Z,15.68
2019-02-27T12:54:51.838Z,15.35
2019-02-27T12:57:19.498Z,15.56
2019-02-27T12:59:47.140Z,15.46
2019-02-27T13:02:14.813Z,15.57
2019-02-27T13:04:42.463Z,15.62
2019-02-27T13:07:10.726Z,15.47
2019-02-27T13:09:38.974Z,15.48
2019-02-27T13:12:06.643Z,15.42
2019-02-27T13:14:34.324Z,15.49
2019-02-27T13:17:02.005Z,15.83
2019-02-27T13:19:29.652Z,15.83
2019-02-27T13:21:57.311Z,15.66
2019-02-27T13:24:24.968Z,15.43
2019-02-27T13:26:52.639Z,15.22
2019-02-27T13:29:21.389Z,15.59
2019-02-27T13:31:51.501Z,15.50
2019-02-27T13:34:18.635Z,15.62
2019-02-27T13:36:46.292Z,15.72
2019-02-27T13:39:13.956Z,15.49
2019-02-27T13:41:44.733Z,15.36
2019-02-27T13:44:10.986Z,15.39
2019-02-27T13:46:38.639Z,15.54
2019-02-27T13:49:06.303Z,15.51
2019-02-27T13:51:37.243Z,15.59
2019-02-27T13:54:03.358Z,15.53
2019-02-27T13:56:31.039Z,15.68
2019-02-27T13:58:58.728Z,15.39
2019-02-27T14:01:28.540Z,15.31
2019-02-27T14:03:55.769Z,15.22
2019-02-27T14:06:23.460Z,15.41
2019-02-27T14:08:51.114Z,15.28
2019-02-27T14:11:18.781Z,15.47
2019-02-27T14:13:46.427Z,15.53
2019-02-27T14:16:14.344Z,15.33
2019-02-27T14:18:42.231Z,15.39
2019-02-27T14:21:10.053Z,15.44
2019-02-27T14:23:37.792Z,15.38
2019-02-27T14:26:06.719Z,15.09
2019-02-27T14:28:34.807Z,15.47
2019-02-27T14:31:02.531Z,15.28
2019-02-27T14:33:30.280Z,15.73
2019-02-27T14:35:57.930Z,15.60
2019-02-27T14:38:25.595Z,15.38
2019-02-27T14:40:53.270Z,15.57
2019-02-27T14:43:20.979Z,15.61
2019-02-27T14:45:50.649Z,15.21
2019-02-27T14:48:21.075Z,15.29
2019-02-27T14:50:47.372Z,15.14
2019-02-27T14:53:16.530Z,15.32
2019-02-27T14:55:44.471Z,15.34
2019-02-27T14:58:12.134Z,15.14
2019-02-27T15:00:40.881Z,15.53
2019-02-27T15:03:08.861Z,15.42
2019-02-27T15:05:37.100Z,15.30
2019-02-27T15:08:05.988Z,15.36
2019-02-27T15:10:33.636Z,15.27
2019-02-27T15:13:01.283Z,15.57
2019-02-27T15:15:29.085Z,15.32
2019-02-27T15:17:56.837Z,15.46
2019-02-27T15:20:24.505Z,15.24
2019-02-27T15:22:52.708Z,14.93
2019-02-27T15:25:21.315Z,15.05
2019-02-27T15:27:48.966Z,15.35
2019-02-27T15:30:16.707Z,14.96
2019-02-27T15:32:44.647Z,14.91
2019-02-27T15:35:12.293Z,15.02
2019-02-27T15:37:39.951Z,14.73
2019-02-27T15:40:07.612Z,14.86
2019-02-27T15:42:35.286Z,14.78
2019-02-27T15:45:03.201Z,14.78
2019-02-27T15:47:33.541Z,14.53
2019-02-27T15:50:02.523Z,14.51
2019-02-27T15:52:29.719Z,14.38
2019-02-27T15:54:59.184Z,14.30
2019-02-27T15:57:26.869Z,14.31
2019-02-27T15:59:54.519Z,14.29
2019-02-27T16:02:22.166Z,13.90
2019-02-27T16:04:55.144Z,13.61
2019-02-27T16:07:19.213Z,13.50
2019-02-27T16:09:47.312Z,13.44
2019-02-27T16:12:15.120Z,13.21
2019-02-27T16:14:43.661Z,12.93
2019-02-27T16:17:11.597Z,12.77
2019-02-27T16:19:42.107Z,12.73
2019-02-27T16:22:08.732Z,12.44
2019-02-27T16:24:36.466Z,12.43
2019-02-27T16:27:04.192Z,12.19
2019-02-27T16:29:31.841Z,12.06
2019-02-27T16:31:59.478Z,11.99
2019-02-27T16:34:29.591Z,11.89
2019-02-27T16:36:56.502Z,11.75
2019-02-27T16:39:24.155Z,11.48
2019-02-27T16:41:51.828Z,11.30
2019-02-27T16:44:22.022Z,12.44
2019-02-27T16:46:48.876Z,11.72
2019-02-27T16:49:16.533Z,12.12
2019-02-27T16:51:44.193Z,12.41
2019-02-27T16:54:11.839Z,12.38
2019-02-27T16:56:39.500Z,11.92
2019-02-27T16:59:08.596Z,11.79
2019-02-27T17:01:36.573Z,11.57
2019-02-27T17:04:04.228Z,11.69
2019-02-27T17:06:31.888Z,11.80
2019-02-27T17:08:59.553Z,11.60
2019-02-27T17:11:29.458Z,11.40
2019-02-27T17:13:57.753Z,11.34
2019-02-27T17:16:25.617Z,11.28
2019-02-27T17:18:53.267Z,11.04
2019-02-27T17:21:22.664Z,11.00
2019-02-27T17:23:50.286Z,10.57
2019-02-27T17:26:17.939Z,10.51
2019-02-27T17:28:45.611Z,10.20
2019-02-27T17:31:13.252Z,10.56
2019-02-27T17:33:40.912Z,10.44
2019-02-27T17:36:08.576Z,10.66
2019-02-27T17:38:36.233Z,10.00
2019-02-27T17:41:03.888Z,10.25
2019-02-27T17:43:31.534Z,9.48
2019-02-27T17:45:59.201Z,9.76
2019-02-27T17:48:26.856Z,9.85
2019-02-27T17:50:54.509Z,9.32
2019-02-27T17:53:22.794Z,9.46
2019-02-27T17:55:51.199Z,9.21
2019-02-27T17:58:18.847Z,8.82
2019-02-27T18:00:49.961Z,9.01
2019-02-27T18:03:16.691Z,8.96
2019-02-27T18:05:44.334Z,8.90
2019-02-27T18:08:15.881Z,8.55
2019-02-27T18:10:41.427Z,9.05
2019-02-27T18:13:09.075Z,9.18
2019-02-27T18:15:36.728Z,9.10
2019-02-27T18:18:07.553Z,8.99
2019-02-27T18:20:33.716Z,9.06
2019-02-27T18:23:01.372Z,8.88
2019-02-27T18:25:29.030Z,8.88
2019-02-27T18:27:59.605Z,9.00
2019-02-27T18:30:26.048Z,8.84
2019-02-27T18:32:53.710Z,8.85
2019-02-27T18:35:21.359Z,8.56
2019-02-27T18:37:53.300Z,8.21
2019-02-27T18:40:18.378Z,8.44
2019-02-27T18:42:46.100Z,8.23
2019-02-27T18:45:15.267Z,8.54
2019-02-27T18:47:43.105Z,8.01
2019-02-27T18:50:10.760Z,8.21
2019-02-27T18:52:39.041Z,7.77
2019-02-27T18:55:06.843Z,7.80
2019-02-27T18:57:34.495Z,7.52
2019-02-27T19:00:02.468Z,7.84
2019-02-27T19:02:30.182Z,8.01
2019-02-27T19:04:57.825Z,7.47
2019-02-27T19:07:25.474Z,7.37
2019-02-27T19:09:53.127Z,7.52
2019-02-27T19:12:25.433Z,7.55
2019-02-27T19:14:50.132Z,7.68
2019-02-27T19:17:17.780Z,7.58
2019-02-27T19:19:48.156Z,7.33
2019-02-27T19:22:14.780Z,7.32
2019-02-27T19:24:42.441Z,7.37
2019-02-27T19:27:10.100Z,7.11
2019-02-27T19:29:37.764Z,7.14
2019-02-27T19:32:05.404Z,7.35
2019-02-27T19:34:33.122Z,7.18
2019-02-27T19:37:02.602Z,6.93
2019-02-27T19:39:30.139Z,7.19
2019-02-27T19:41:57.792Z,7.03
2019-02-27T19:44:28.575Z,7.10
2019-02-27T19:46:54.787Z,7.20
2019-02-27T19:49:22.436Z,7.16
2019-02-27T19:51:54.561Z,7.01
2019-02-27T19:54:19.471Z,6.73
2019-02-27T19:56:47.114Z,6.62
2019-02-27T19:59:14.766Z,6.82
2019-02-27T20:01:47.028Z,6.96
2019-02-27T20:04:12.828Z,7.03
2019-02-27T20:06:40.642Z,6.76
2019-02-27T20:09:08.345Z,6.47
2019-02-27T20:11:40.075Z,6.51
2019-02-27T20:14:05.440Z,6.42
2019-02-27T20:16:33.104Z,6.31
2019-02-27T20:19:00.763Z,6.40
2019-02-27T20:21:28.413Z,6.28
2019-02-27T20:24:01.171Z,6.49
2019-02-27T20:26:25.801Z,6.44
2019-02-27T20:28:53.451Z,6.16
2019-02-27T20:31:21.261Z,6.31
2019-02-27T20:33:48.982Z,6.17
2019-02-27T20:36:16.641Z,5.96
2019-02-27T20:38:44.287Z,5.89
2019-02-27T20:41:11.946Z,5.71
2019-02-27T20:43:39.610Z,5.60
2019-02-27T20:46:07.424Z,5.55
2019-02-27T20:48:35.745Z,5.52
2019-02-27T20:51:06.022Z,5.71
2019-02-27T20:53:33.789Z,5.66
2019-02-27T20:56:03.106Z,5.38
2019-02-27T20:58:30.838Z,5.34
2019-02-27T21:00:58.567Z,5.13
2019-02-27T21:03:27.357Z,5.54
2019-02-27T21:05:55.763Z,5.71
2019-02-27T21:08:23.427Z,5.87
2019-02-27T21:10:54.876Z,5.48
2019-02-27T21:13:20.434Z,5.15
2019-02-27T21:15:48.096Z,4.99
2019-02-27T21:18:15.755Z,5.15
2019-02-27T21:20:45.159Z,4.99
2019-02-27T21:23:12.795Z,4.60
2019-02-27T21:25:40.449Z,4.93
2019-02-27T21:28:08.095Z,4.67
2019-02-27T21:30:35.755Z,4.90
2019-02-27T21:33:03.420Z,4.64
2019-02-27T21:35:31.104Z,4.80
2019-02-27T21:37:58.785Z,4.66
2019-02-27T21:40:26.449Z,4.60
2019-02-27T21:42:54.096Z,4.66
2019-02-27T21:45:21.766Z,4.47
2019-02-27T21:47:51.930Z,4.54
2019-02-27T21:50:18.785Z,4.51
2019-02-27T21:52:46.427Z,4.13
2019-02-27T21:55:14.085Z,4.53
2019-02-27T21:57:41.817Z,4.48
2019-02-27T22:00:11.371Z,4.64
2019-02-27T22:02:39.169Z,4.28
2019-02-27T22:05:06.823Z,4.29
2019-02-27T22:07:34.474Z,4.24
2019-02-27T22:10:02.126Z,4.33
2019-02-27T22:12:32.375Z,4.08
2019-02-27T22:15:00.279Z,4.16
2019-02-27T22:17:28.167Z,4.07
2019-02-27T22:19:55.832Z,4.10
2019-02-27T22:22:23.472Z,4.11
2019-02-27T22:24:52.290Z,4.24
2019-02-27T22:27:20.481Z,4.00
2019-02-27T22:29:48.141Z,3.90
2019-02-27T22:32:15.797Z,4.13
2019-02-27T22:34:43.440Z,4.00
2019-02-27T22:37:11.088Z,4.07
2019-02-27T22:39:38.740Z,3.92
2019-02-27T22:42:06.394Z,3.87
2019-02-27T22:44:34.057Z,3.88
2019-02-27T22:47:01.718Z,3.99
2019-02-27T22:49:31.948Z,3.93
2019-02-27T22:51:58.727Z,3.97
2019-02-27T22:54:26.363Z,3.74
2019-02-27T22:56:54.015Z,3.68
2019-02-27T22:59:21.658Z,3.84
2019-02-27T23:01:50.652Z,3.71
2019-02-27T23:04:18.633Z,3.87
2019-02-27T23:06:47.175Z,3.84
2019-02-27T23:09:15.707Z,3.80
2019-02-27T23:11:43.440Z,3.54
2019-02-27T23:14:11.097Z,3.76
2019-02-27T23:16:38.756Z,3.71
2019-02-27T23:19:06.438Z,3.58
2019-02-27T23:21:34.071Z,3.66
2019-02-27T23:24:01.720Z,3.50
2019-02-27T23:26:29.551Z,3.57
2019-02-27T23:28:57.205Z,3.35
2019-02-27T23:31:24.843Z,3.52
2019-02-27T23:33:52.521Z,3.35
2019-02-27T23:36:21.885Z,3.37
2019-02-27T23:38:49.549Z,3.62
2019-02-27T23:41:17.192Z,3.45
2019-02-27T23:43:44.839Z,3.48
2019-02-27T23:46:12.498Z,3.17
2019-02-27T23:48:40.136Z,3.30
2019-02-27T23:51:07.784Z,3.15
2019-02-27T23:53:35.430Z,3.20
2019-02-27T23:56:03.084Z,3.16
2019-02-27T23:58:30.725Z,3.07
